sensor_id;sensor_type;location;lat;lon;timestamp;pressure;altitude;pressure_sealevel;temperature;humidity
74936;BME280;63501;55.570;37.488;2023-09-18T00:01:34;99522.66;;;8.46;84.46
74936;BME280;63501;55.570;37.488;2023-09-18T00:04:00;99533.72;;;8.50;84.76
74936;BME280;63501;55.570;37.488;2023-09-18T00:06:29;99532.22;;;8.56;84.65
74936;BME280;63501;55.570;37.488;2023-09-18T00:08:56;99537.81;;;8.63;84.70
74936;BME280;63501;55.570;37.488;2023-09-18T00:11:23;99518.13;;;8.61;84.26
74936;BME280;63501;55.570;37.488;2023-09-18T00:13:49;99528.94;;;8.77;84.61
74936;BME280;63501;55.570;37.488;2023-09-18T00:16:16;99535.69;;;8.83;84.20
74936;BME280;63501;55.570;37.488;2023-09-18T00:18:43;99533.34;;;8.85;83.28
74936;BME280;63501;55.570;37.488;2023-09-18T00:21:10;99538.50;;;8.87;83.78
74936;BME280;63501;55.570;37.488;2023-09-18T00:23:38;99533.38;;;8.89;82.99
74936;BME280;63501;55.570;37.488;2023-09-18T00:26:05;99534.13;;;8.86;82.92
74936;BME280;63501;55.570;37.488;2023-09-18T00:28:32;99525.44;;;8.84;83.35
74936;BME280;63501;55.570;37.488;2023-09-18T00:30:58;99530.91;;;8.80;83.55
74936;BME280;63501;55.570;37.488;2023-09-18T00:33:25;99522.25;;;8.78;83.05
74936;BME280;63501;55.570;37.488;2023-09-18T00:35:52;99533.28;;;8.78;83.49
74936;BME280;63501;55.570;37.488;2023-09-18T00:38:18;99523.81;;;8.76;83.09
74936;BME280;63501;55.570;37.488;2023-09-18T00:40:47;99526.91;;;8.74;83.11
74936;BME280;63501;55.570;37.488;2023-09-18T00:43:13;99530.06;;;8.72;82.84
74936;BME280;63501;55.570;37.488;2023-09-18T00:45:41;99522.97;;;8.71;83.40
74936;BME280;63501;55.570;37.488;2023-09-18T00:48:08;99526.09;;;8.70;82.82
74936;BME280;63501;55.570;37.488;2023-09-18T00:50:35;99519.03;;;8.72;83.22
74936;BME280;63501;55.570;37.488;2023-09-18T00:53:03;99519.81;;;8.73;82.19
74936;BME280;63501;55.570;37.488;2023-09-18T00:55:30;99515.09;;;8.73;82.48
74936;BME280;63501;55.570;37.488;2023-09-18T00:57:59;99519.88;;;8.77;82.50
74936;BME280;63501;55.570;37.488;2023-09-18T01:00:24;99513.22;;;8.81;82.68
74936;BME280;63501;55.570;37.488;2023-09-18T01:02:51;99516.00;;;8.85;82.40
74936;BME280;63501;55.570;37.488;2023-09-18T01:05:18;99520.00;;;8.91;81.54
74936;BME280;63501;55.570;37.488;2023-09-18T01:07:45;99521.22;;;8.93;81.78
74936;BME280;63501;55.570;37.488;2023-09-18T01:10:12;99508.22;;;8.94;81.53
74936;BME280;63501;55.570;37.488;2023-09-18T01:12:44;99508.63;;;8.96;81.85
74936;BME280;63501;55.570;37.488;2023-09-18T01:15:17;99510.66;;;8.99;81.84
74936;BME280;63501;55.570;37.488;2023-09-18T01:17:44;99507.47;;;8.97;81.75
74936;BME280;63501;55.570;37.488;2023-09-18T01:20:11;99502.72;;;8.97;81.27
74936;BME280;63501;55.570;37.488;2023-09-18T01:22:39;99501.16;;;8.96;81.51
74936;BME280;63501;55.570;37.488;2023-09-18T01:25:06;99501.16;;;8.96;81.61
74936;BME280;63501;55.570;37.488;2023-09-18T01:27:33;99505.88;;;8.96;81.46
74936;BME280;63501;55.570;37.488;2023-09-18T01:30:00;99494.06;;;8.95;81.32
74936;BME280;63501;55.570;37.488;2023-09-18T01:32:29;99490.09;;;8.93;81.03
74936;BME280;63501;55.570;37.488;2023-09-18T01:34:56;99493.22;;;8.91;81.42
74936;BME280;63501;55.570;37.488;2023-09-18T01:37:24;99494.84;;;8.92;81.17
74936;BME280;63501;55.570;37.488;2023-09-18T01:39:53;99479.78;;;8.86;81.76
74936;BME280;63501;55.570;37.488;2023-09-18T01:42:20;99485.41;;;8.97;81.15
74936;BME280;63501;55.570;37.488;2023-09-18T01:44:47;99485.41;;;8.97;81.64
74936;BME280;63501;55.570;37.488;2023-09-18T01:47:14;99487.34;;;8.93;81.28
74936;BME280;63501;55.570;37.488;2023-09-18T01:49:42;99481.72;;;8.82;81.38
74936;BME280;63501;55.570;37.488;2023-09-18T01:52:09;99482.03;;;8.73;81.54
74936;BME280;63501;55.570;37.488;2023-09-18T01:54:36;99483.47;;;8.64;82.34
74936;BME280;63501;55.570;37.488;2023-09-18T01:57:04;99476.72;;;8.58;82.55
74936;BME280;63501;55.570;37.488;2023-09-18T01:59:32;99478.28;;;8.55;82.89
74936;BME280;63501;55.570;37.488;2023-09-18T02:01:59;99492.06;;;8.55;82.50
74936;BME280;63501;55.570;37.488;2023-09-18T02:04:28;99481.44;;;8.57;83.08
74936;BME280;63501;55.570;37.488;2023-09-18T02:06:55;99474.75;;;8.58;83.09
74936;BME280;63501;55.570;37.488;2023-09-18T02:09:22;99475.19;;;8.60;83.01
74936;BME280;63501;55.570;37.488;2023-09-18T02:11:49;99458.94;;;8.52;83.13
74936;BME280;63501;55.570;37.488;2023-09-18T02:14:17;99466.94;;;8.60;82.81
74936;BME280;63501;55.570;37.488;2023-09-18T02:16:44;99466.59;;;8.65;82.97
74936;BME280;63501;55.570;37.488;2023-09-18T02:19:11;99470.19;;;8.73;82.72
74936;BME280;63501;55.570;37.488;2023-09-18T02:21:38;99458.84;;;8.78;82.21
74936;BME280;63501;55.570;37.488;2023-09-18T02:24:05;99458.88;;;8.82;82.80
74936;BME280;63501;55.570;37.488;2023-09-18T02:26:32;99449.03;;;8.84;82.62
74936;BME280;63501;55.570;37.488;2023-09-18T02:28:59;99460.13;;;8.88;82.15
74936;BME280;63501;55.570;37.488;2023-09-18T02:31:28;99452.25;;;8.90;82.54
74936;BME280;63501;55.570;37.488;2023-09-18T02:33:55;99448.34;;;8.94;81.73
74936;BME280;63501;55.570;37.488;2023-09-18T02:36:21;99452.31;;;8.97;82.38
74936;BME280;63501;55.570;37.488;2023-09-18T02:38:48;99453.09;;;8.97;81.52
74936;BME280;63501;55.570;37.488;2023-09-18T02:41:15;99459.00;;;8.96;82.46
74936;BME280;63501;55.570;37.488;2023-09-18T02:43:42;99453.47;;;8.92;82.38
74936;BME280;63501;55.570;37.488;2023-09-18T02:46:08;99448.31;;;8.87;82.58
74936;BME280;63501;55.570;37.488;2023-09-18T02:48:37;99451.00;;;8.84;82.78
74936;BME280;63501;55.570;37.488;2023-09-18T02:51:03;99449.81;;;8.81;82.15
74936;BME280;63501;55.570;37.488;2023-09-18T02:53:30;99449.81;;;8.81;82.77
74936;BME280;63501;55.570;37.488;2023-09-18T02:55:58;99438.38;;;8.79;82.40
74936;BME280;63501;55.570;37.488;2023-09-18T02:58:26;99447.06;;;8.81;82.66
74936;BME280;63501;55.570;37.488;2023-09-18T03:00:55;99445.09;;;8.82;83.15
74936;BME280;63501;55.570;37.488;2023-09-18T03:03:22;99441.94;;;8.83;82.52
74936;BME280;63501;55.570;37.488;2023-09-18T03:05:50;99442.00;;;8.87;82.29
74936;BME280;63501;55.570;37.488;2023-09-18T03:08:16;99442.41;;;8.89;82.07
74936;BME280;63501;55.570;37.488;2023-09-18T03:10:43;99440.03;;;8.87;82.13
74936;BME280;63501;55.570;37.488;2023-09-18T03:13:11;99431.72;;;8.84;82.30
74936;BME280;63501;55.570;37.488;2023-09-18T03:15:38;99434.84;;;8.82;82.80
74936;BME280;63501;55.570;37.488;2023-09-18T03:18:05;99434.06;;;8.82;82.97
74936;BME280;63501;55.570;37.488;2023-09-18T03:20:32;99425.44;;;8.87;82.46
74936;BME280;63501;55.570;37.488;2023-09-18T03:23:01;99432.94;;;8.90;82.59
74936;BME280;63501;55.570;37.488;2023-09-18T03:25:28;99430.25;;;8.97;82.98
74936;BME280;63501;55.570;37.488;2023-09-18T03:27:55;99425.16;;;9.02;82.63
74936;BME280;63501;55.570;37.488;2023-09-18T03:30:22;99424.88;;;9.11;82.17
74936;BME280;63501;55.570;37.488;2023-09-18T03:32:50;99431.59;;;9.17;82.75
74936;BME280;63501;55.570;37.488;2023-09-18T03:35:17;99429.69;;;9.25;81.90
74936;BME280;63501;55.570;37.488;2023-09-18T03:37:44;99425.00;;;9.29;81.64
74936;BME280;63501;55.570;37.488;2023-09-18T03:40:12;99432.13;;;9.34;81.85
74936;BME280;63501;55.570;37.488;2023-09-18T03:42:39;99436.88;;;9.37;82.12
74936;BME280;63501;55.570;37.488;2023-09-18T03:45:06;99440.84;;;9.39;81.49
74936;BME280;63501;55.570;37.488;2023-09-18T03:47:33;99440.44;;;9.41;81.65
74936;BME280;63501;55.570;37.488;2023-09-18T03:50:00;99436.94;;;9.47;81.73
74936;BME280;63501;55.570;37.488;2023-09-18T03:52:27;99433.03;;;9.52;81.48
74936;BME280;63501;55.570;37.488;2023-09-18T03:54:54;99444.88;;;9.52;81.23
74936;BME280;63501;55.570;37.488;2023-09-18T03:57:22;99432.28;;;9.55;80.92
74936;BME280;63501;55.570;37.488;2023-09-18T03:59:48;99425.22;;;9.61;81.42
74936;BME280;63501;55.570;37.488;2023-09-18T04:02:15;99435.50;;;9.68;81.52
74936;BME280;63501;55.570;37.488;2023-09-18T04:04:42;99433.56;;;9.75;80.74
74936;BME280;63501;55.570;37.488;2023-09-18T04:07:09;99434.00;;;9.81;81.13
74936;BME280;63501;55.570;37.488;2023-09-18T04:09:36;99436.38;;;9.86;81.06
74936;BME280;63501;55.570;37.488;2023-09-18T04:12:05;99439.16;;;9.86;80.92
74936;BME280;63501;55.570;37.488;2023-09-18T04:14:33;99434.44;;;9.90;80.62
74936;BME280;63501;55.570;37.488;2023-09-18T04:17:01;99432.47;;;9.91;80.11
74936;BME280;63501;55.570;37.488;2023-09-18T04:19:28;99426.97;;;9.98;79.54
74936;BME280;63501;55.570;37.488;2023-09-18T04:21:55;99423.47;;;10.04;79.47
74936;BME280;63501;55.570;37.488;2023-09-18T04:24:22;99427.03;;;10.12;79.54
74936;BME280;63501;55.570;37.488;2023-09-18T04:26:49;99423.50;;;10.19;79.28
74936;BME280;63501;55.570;37.488;2023-09-18T04:29:17;99417.25;;;10.25;78.81
74936;BME280;63501;55.570;37.488;2023-09-18T04:31:45;99427.94;;;10.30;79.35
74936;BME280;63501;55.570;37.488;2023-09-18T04:34:12;99418.06;;;10.29;79.34
74936;BME280;63501;55.570;37.488;2023-09-18T04:36:39;99410.56;;;10.33;78.51
74936;BME280;63501;55.570;37.488;2023-09-18T04:39:06;99420.84;;;10.37;79.47
74936;BME280;63501;55.570;37.488;2023-09-18T04:41:35;99427.16;;;10.41;79.13
74936;BME280;63501;55.570;37.488;2023-09-18T04:44:01;99420.47;;;10.49;78.25
74936;BME280;63501;55.570;37.488;2023-09-18T04:46:30;99410.22;;;10.53;78.11
74936;BME280;63501;55.570;37.488;2023-09-18T04:48:58;99410.22;;;10.56;79.14
74936;BME280;63501;55.570;37.488;2023-09-18T04:51:25;99409.06;;;10.68;77.84
74936;BME280;63501;55.570;37.488;2023-09-18T04:53:51;99404.34;;;10.79;78.00
74936;BME280;63501;55.570;37.488;2023-09-18T04:56:20;99400.78;;;10.82;77.29
74936;BME280;63501;55.570;37.488;2023-09-18T04:58:47;99407.50;;;10.89;78.26
74936;BME280;63501;55.570;37.488;2023-09-18T05:01:13;99400.41;;;11.02;77.91
74936;BME280;63501;55.570;37.488;2023-09-18T05:03:40;99403.94;;;11.09;77.61
74936;BME280;63501;55.570;37.488;2023-09-18T05:06:09;99395.66;;;11.09;77.62
74936;BME280;63501;55.570;37.488;2023-09-18T05:08:35;99405.91;;;11.05;77.28
74936;BME280;63501;55.570;37.488;2023-09-18T05:11:04;99407.50;;;11.13;77.84
74936;BME280;63501;55.570;37.488;2023-09-18T05:13:30;99408.31;;;11.14;77.72
74936;BME280;63501;55.570;37.488;2023-09-18T05:15:57;99402.34;;;11.26;76.96
74936;BME280;63501;55.570;37.488;2023-09-18T05:18:26;99407.50;;;11.31;77.00
74936;BME280;63501;55.570;37.488;2023-09-18T05:20:52;99401.16;;;11.38;76.87
74936;BME280;63501;55.570;37.488;2023-09-18T05:23:20;99412.22;;;11.52;76.57
74936;BME280;63501;55.570;37.488;2023-09-18T05:25:47;99408.22;;;11.64;76.40
74936;BME280;63501;55.570;37.488;2023-09-18T05:28:14;99404.66;;;11.67;76.30
74936;BME280;63501;55.570;37.488;2023-09-18T05:30:40;99401.09;;;11.70;76.34
74936;BME280;63501;55.570;37.488;2023-09-18T05:33:07;99404.63;;;11.88;75.44
74936;BME280;63501;55.570;37.488;2023-09-18T05:35:35;99414.84;;;12.13;74.73
74936;BME280;63501;55.570;37.488;2023-09-18T05:38:03;99405.22;;;12.35;74.23
74936;BME280;63501;55.570;37.488;2023-09-18T05:40:31;99402.47;;;12.28;74.35
74936;BME280;63501;55.570;37.488;2023-09-18T05:42:59;99420.03;;;11.97;74.35
74936;BME280;63501;55.570;37.488;2023-09-18T05:45:25;99407.00;;;11.76;75.70
74936;BME280;63501;55.570;37.488;2023-09-18T05:47:53;99417.72;;;11.70;75.67
74936;BME280;63501;55.570;37.488;2023-09-18T05:50:27;99410.97;;;11.71;75.85
74936;BME280;63501;55.570;37.488;2023-09-18T05:52:55;99423.19;;;11.95;75.20
74936;BME280;63501;55.570;37.488;2023-09-18T05:55:24;99415.97;;;12.26;74.85
74936;BME280;63501;55.570;37.488;2023-09-18T05:57:53;99417.78;;;12.58;74.56
74936;BME280;63501;55.570;37.488;2023-09-18T06:00:19;99414.41;;;12.84;73.18
74936;BME280;63501;55.570;37.488;2023-09-18T06:02:47;99419.94;;;12.91;73.60
74936;BME280;63501;55.570;37.488;2023-09-18T06:05:14;99411.19;;;12.93;72.50
74936;BME280;63501;55.570;37.488;2023-09-18T06:07:42;99416.56;;;13.14;72.77
74936;BME280;63501;55.570;37.488;2023-09-18T06:10:09;99409.63;;;13.40;72.40
74936;BME280;63501;55.570;37.488;2023-09-18T06:12:38;99406.44;;;13.42;71.65
74936;BME280;63501;55.570;37.488;2023-09-18T06:15:07;99410.97;;;13.18;71.79
74936;BME280;63501;55.570;37.488;2023-09-18T06:17:35;99407.50;;;13.07;72.13
74936;BME280;63501;55.570;37.488;2023-09-18T06:20:02;99398.94;;;12.87;73.03
74936;BME280;63501;55.570;37.488;2023-09-18T06:22:29;99400.34;;;13.09;72.18
74936;BME280;63501;55.570;37.488;2023-09-18T06:24:56;99403.97;;;13.03;71.93
74936;BME280;63501;55.570;37.488;2023-09-18T06:27:23;99400.31;;;13.13;71.96
74936;BME280;63501;55.570;37.488;2023-09-18T06:29:50;99404.91;;;13.34;71.93
74936;BME280;63501;55.570;37.488;2023-09-18T06:32:18;99403.91;;;13.58;71.25
74936;BME280;63501;55.570;37.488;2023-09-18T06:34:44;99398.97;;;13.73;70.60
74936;BME280;63501;55.570;37.488;2023-09-18T06:37:12;99399.63;;;13.84;70.81
74936;BME280;63501;55.570;37.488;2023-09-18T06:39:39;99395.47;;;14.03;70.29
74936;BME280;63501;55.570;37.488;2023-09-18T06:42:06;99391.47;;;14.35;69.72
74936;BME280;63501;55.570;37.488;2023-09-18T06:44:33;99386.63;;;14.69;68.91
74936;BME280;63501;55.570;37.488;2023-09-18T06:47:00;99390.94;;;14.97;67.69
74936;BME280;63501;55.570;37.488;2023-09-18T06:49:28;99388.66;;;14.92;66.99
74936;BME280;63501;55.570;37.488;2023-09-18T06:51:56;99389.34;;;15.00;66.71
74936;BME280;63501;55.570;37.488;2023-09-18T06:54:23;99397.31;;;15.45;66.01
74936;BME280;63501;55.570;37.488;2023-09-18T06:56:50;99392.47;;;15.72;65.54
74936;BME280;63501;55.570;37.488;2023-09-18T06:59:16;99391.59;;;16.15;64.85
74936;BME280;63501;55.570;37.488;2023-09-18T07:01:43;99385.13;;;16.38;63.30
74936;BME280;63501;55.570;37.488;2023-09-18T07:04:10;99391.00;;;16.60;63.09
74936;BME280;63501;55.570;37.488;2023-09-18T07:06:38;99398.50;;;16.99;62.54
74936;BME280;63501;55.570;37.488;2023-09-18T07:09:05;99399.66;;;17.02;61.14
74936;BME280;63501;55.570;37.488;2023-09-18T07:11:32;99394.91;;;16.82;60.71
74936;BME280;63501;55.570;37.488;2023-09-18T07:13:59;99406.66;;;16.37;62.69
74936;BME280;63501;55.570;37.488;2023-09-18T07:16:26;99411.00;;;16.22;61.81
74936;BME280;63501;55.570;37.488;2023-09-18T07:18:53;99410.53;;;16.04;62.40
74936;BME280;63501;55.570;37.488;2023-09-18T07:21:19;99418.34;;;16.12;62.95
74936;BME280;63501;55.570;37.488;2023-09-18T07:23:48;99418.53;;;16.42;63.19
74936;BME280;63501;55.570;37.488;2023-09-18T07:26:15;99418.31;;;16.52;62.13
74936;BME280;63501;55.570;37.488;2023-09-18T07:28:42;99415.19;;;16.66;62.25
74936;BME280;63501;55.570;37.488;2023-09-18T07:31:10;99412.97;;;16.78;61.53
74936;BME280;63501;55.570;37.488;2023-09-18T07:33:37;99414.47;;;16.99;61.94
74936;BME280;63501;55.570;37.488;2023-09-18T07:36:04;99415.19;;;17.19;62.11
74936;BME280;63501;55.570;37.488;2023-09-18T07:38:31;99423.13;;;17.04;61.53
74936;BME280;63501;55.570;37.488;2023-09-18T07:40:59;99420.16;;;17.11;61.36
74936;BME280;63501;55.570;37.488;2023-09-18T07:43:26;99414.56;;;17.11;60.89
74936;BME280;63501;55.570;37.488;2023-09-18T07:45:53;99408.81;;;17.35;61.00
74936;BME280;63501;55.570;37.488;2023-09-18T07:48:21;99418.88;;;17.61;59.89
74936;BME280;63501;55.570;37.488;2023-09-18T07:50:48;99417.59;;;17.95;59.45
74936;BME280;63501;55.570;37.488;2023-09-18T07:53:14;99415.66;;;18.08;58.83
74936;BME280;63501;55.570;37.488;2023-09-18T07:55:41;99421.75;;;17.90;58.32
74936;BME280;63501;55.570;37.488;2023-09-18T07:58:09;99420.53;;;18.04;58.19
74936;BME280;63501;55.570;37.488;2023-09-18T08:00:36;99412.69;;;18.41;58.38
74936;BME280;63501;55.570;37.488;2023-09-18T08:03:04;99415.22;;;18.90;57.45
74936;BME280;63501;55.570;37.488;2023-09-18T08:05:31;99411.91;;;19.42;56.97
74936;BME280;63501;55.570;37.488;2023-09-18T08:07:58;99417.31;;;19.71;55.85
74936;BME280;63501;55.570;37.488;2023-09-18T08:10:25;99419.34;;;19.71;56.26
74936;BME280;63501;55.570;37.488;2023-09-18T08:12:52;99417.28;;;19.24;54.98
74936;BME280;63501;55.570;37.488;2023-09-18T08:15:21;99425.84;;;19.08;56.31
74936;BME280;63501;55.570;37.488;2023-09-18T08:17:47;99430.22;;;19.21;56.63
74936;BME280;63501;55.570;37.488;2023-09-18T08:20:15;99427.88;;;19.67;55.85
74936;BME280;63501;55.570;37.488;2023-09-18T08:22:42;99420.56;;;20.26;54.66
74936;BME280;63501;55.570;37.488;2023-09-18T08:25:09;99406.53;;;20.89;53.61
74936;BME280;63501;55.570;37.488;2023-09-18T08:27:36;99409.63;;;21.31;51.30
74936;BME280;63501;55.570;37.488;2023-09-18T08:30:06;99415.75;;;21.48;51.56
74936;BME280;63501;55.570;37.488;2023-09-18T08:32:34;99420.16;;;21.85;51.60
74936;BME280;63501;55.570;37.488;2023-09-18T08:35:01;99412.00;;;22.42;50.99
74936;BME280;63501;55.570;37.488;2023-09-18T08:37:29;99411.22;;;22.93;49.63
74936;BME280;63501;55.570;37.488;2023-09-18T08:39:55;99414.50;;;22.92;49.82
74936;BME280;63501;55.570;37.488;2023-09-18T08:42:22;99409.97;;;22.85;49.20
74936;BME280;63501;55.570;37.488;2023-09-18T08:44:50;99415.03;;;22.72;49.18
74936;BME280;63501;55.570;37.488;2023-09-18T08:47:18;99417.53;;;22.70;49.05
74936;BME280;63501;55.570;37.488;2023-09-18T08:49:46;99413.22;;;23.02;47.88
74936;BME280;63501;55.570;37.488;2023-09-18T08:52:15;99415.28;;;23.49;46.79
74936;BME280;63501;55.570;37.488;2023-09-18T08:54:42;99411.88;;;24.23;45.42
74936;BME280;63501;55.570;37.488;2023-09-18T08:57:09;99410.72;;;24.44;43.66
74936;BME280;63501;55.570;37.488;2023-09-18T08:59:37;99408.06;;;23.96;44.66
74936;BME280;63501;55.570;37.488;2023-09-18T09:02:05;99409.72;;;23.64;46.04
74936;BME280;63501;55.570;37.488;2023-09-18T09:04:32;99415.69;;;23.33;46.64
74936;BME280;63501;55.570;37.488;2023-09-18T09:07:00;99421.13;;;22.80;47.11
74936;BME280;63501;55.570;37.488;2023-09-18T09:09:27;99430.78;;;22.27;47.57
74936;BME280;63501;55.570;37.488;2023-09-18T09:11:54;99429.56;;;21.91;48.30
74936;BME280;63501;55.570;37.488;2023-09-18T09:14:21;99429.41;;;21.86;48.87
74936;BME280;63501;55.570;37.488;2023-09-18T09:16:53;99420.78;;;22.35;47.92
74936;BME280;63501;55.570;37.488;2023-09-18T09:19:27;99420.63;;;22.90;46.79
74936;BME280;63501;55.570;37.488;2023-09-18T09:21:55;99422.81;;;22.95;46.40
74936;BME280;63501;55.570;37.488;2023-09-18T09:24:37;99427.06;;;22.91;46.51
74936;BME280;63501;55.570;37.488;2023-09-18T09:27:04;99425.16;;;22.88;46.73
74936;BME280;63501;55.570;37.488;2023-09-18T09:29:30;99425.09;;;23.06;46.35
74936;BME280;63501;55.570;37.488;2023-09-18T09:31:58;99423.50;;;23.38;45.67
74936;BME280;63501;55.570;37.488;2023-09-18T09:34:38;99412.75;;;24.29;44.23
74936;BME280;63501;55.570;37.488;2023-09-18T09:37:04;99412.28;;;24.75;43.76
74936;BME280;63501;55.570;37.488;2023-09-18T09:39:31;99416.34;;;24.74;43.57
74936;BME280;63501;55.570;37.488;2023-09-18T09:42:01;99425.47;;;24.48;43.70
74936;BME280;63501;55.570;37.488;2023-09-18T09:44:29;99438.34;;;24.11;43.98
74936;BME280;63501;55.570;37.488;2023-09-18T09:46:57;99436.78;;;23.71;44.81
74936;BME280;63501;55.570;37.488;2023-09-18T09:49:25;99438.56;;;24.22;43.92
74936;BME280;63501;55.570;37.488;2023-09-18T09:51:53;99421.63;;;25.31;42.16
74936;BME280;63501;55.570;37.488;2023-09-18T09:54:31;99404.59;;;26.96;39.72
74936;BME280;63501;55.570;37.488;2023-09-18T09:57:01;99392.84;;;29.76;36.09
74936;BME280;63501;55.570;37.488;2023-09-18T09:59:28;99384.84;;;31.12;34.06
74936;BME280;63501;55.570;37.488;2023-09-18T10:01:58;99378.59;;;33.41;31.65
74936;BME280;63501;55.570;37.488;2023-09-18T10:04:25;99374.81;;;33.73;31.02
74936;BME280;63501;55.570;37.488;2023-09-18T10:06:54;99389.47;;;33.16;31.59
74936;BME280;63501;55.570;37.488;2023-09-18T10:09:23;99396.97;;;32.42;31.73
74936;BME280;63501;55.570;37.488;2023-09-18T10:11:52;99393.16;;;31.40;33.36
74936;BME280;63501;55.570;37.488;2023-09-18T10:14:21;99395.78;;;30.12;34.05
74936;BME280;63501;55.570;37.488;2023-09-18T10:16:56;99411.69;;;28.59;35.94
74936;BME280;63501;55.570;37.488;2023-09-18T10:19:25;99424.19;;;27.31;38.00
74936;BME280;63501;55.570;37.488;2023-09-18T10:21:57;99433.59;;;26.02;39.77
74936;BME280;63501;55.570;37.488;2023-09-18T10:24:31;99436.81;;;24.98;40.86
74936;BME280;63501;55.570;37.488;2023-09-18T10:27:00;99454.13;;;24.02;42.37
74936;BME280;63501;55.570;37.488;2023-09-18T10:29:32;99449.28;;;23.22;43.21
74936;BME280;63501;55.570;37.488;2023-09-18T10:31:59;99446.53;;;22.61;44.21
74936;BME280;63501;55.570;37.488;2023-09-18T10:34:29;99446.75;;;21.84;45.44
74936;BME280;63501;55.570;37.488;2023-09-18T10:36:58;99462.22;;;21.21;46.57
74936;BME280;63501;55.570;37.488;2023-09-18T10:39:26;99462.63;;;20.70;47.74
74936;BME280;63501;55.570;37.488;2023-09-18T10:41:54;99468.31;;;20.35;48.90
74936;BME280;63501;55.570;37.488;2023-09-18T10:44:20;99466.19;;;20.18;48.56
74936;BME280;63501;55.570;37.488;2023-09-18T10:46:49;99458.88;;;20.20;49.12
74936;BME280;63501;55.570;37.488;2023-09-18T10:49:17;99456.78;;;20.33;49.10
74936;BME280;63501;55.570;37.488;2023-09-18T10:51:45;99451.81;;;20.38;49.48
74936;BME280;63501;55.570;37.488;2023-09-18T10:54:14;99449.75;;;20.51;48.82
74936;BME280;63501;55.570;37.488;2023-09-18T10:56:41;99444.38;;;20.66;49.34
74936;BME280;63501;55.570;37.488;2023-09-18T10:59:08;99452.56;;;20.82;49.27
74936;BME280;63501;55.570;37.488;2023-09-18T11:01:35;99436.59;;;21.19;48.71
74936;BME280;63501;55.570;37.488;2023-09-18T11:04:05;99431.97;;;22.63;46.92
74936;BME280;63501;55.570;37.488;2023-09-18T11:09:18;99374.63;;;29.90;37.02
74936;BME280;63501;55.570;37.488;2023-09-18T11:11:46;99362.78;;;33.22;32.77
74936;BME280;63501;55.570;37.488;2023-09-18T11:14:14;99347.91;;;35.22;30.66
74936;BME280;63501;55.570;37.488;2023-09-18T11:16:41;99347.44;;;36.58;28.98
74936;BME280;63501;55.570;37.488;2023-09-18T11:19:10;99349.16;;;36.45;29.26
74936;BME280;63501;55.570;37.488;2023-09-18T11:21:39;99348.47;;;35.93;29.28
74936;BME280;63501;55.570;37.488;2023-09-18T11:24:06;99363.63;;;34.72;29.37
74936;BME280;63501;55.570;37.488;2023-09-18T11:26:36;99366.91;;;34.00;30.44
74936;BME280;63501;55.570;37.488;2023-09-18T11:29:06;99368.97;;;34.13;30.34
74936;BME280;63501;55.570;37.488;2023-09-18T11:31:44;99366.63;;;34.87;29.39
74936;BME280;63501;55.570;37.488;2023-09-18T11:34:13;99357.38;;;36.26;28.07
74936;BME280;63501;55.570;37.488;2023-09-18T11:36:40;99348.13;;;37.50;25.96
74936;BME280;63501;55.570;37.488;2023-09-18T11:39:07;99355.28;;;37.89;25.41
74936;BME280;63501;55.570;37.488;2023-09-18T11:41:35;99363.00;;;37.79;25.34
74936;BME280;63501;55.570;37.488;2023-09-18T11:46:49;99365.31;;;37.02;26.09
74936;BME280;63501;55.570;37.488;2023-09-18T11:49:20;99371.06;;;36.64;26.35
74936;BME280;63501;55.570;37.488;2023-09-18T11:51:47;99368.47;;;36.07;26.29
74936;BME280;63501;55.570;37.488;2023-09-18T11:54:15;99381.66;;;34.52;27.06
74936;BME280;63501;55.570;37.488;2023-09-18T11:56:42;99396.41;;;33.08;28.41
74936;BME280;63501;55.570;37.488;2023-09-18T11:59:09;99397.56;;;32.54;29.32
74936;BME280;63501;55.570;37.488;2023-09-18T12:01:37;99408.22;;;32.72;29.00
74936;BME280;63501;55.570;37.488;2023-09-18T12:04:04;99391.88;;;33.39;28.70
74936;BME280;63501;55.570;37.488;2023-09-18T12:09:06;99378.53;;;36.44;24.80
74936;BME280;63501;55.570;37.488;2023-09-18T12:11:34;99376.81;;;36.87;24.51
74936;BME280;63501;55.570;37.488;2023-09-18T12:14:01;99383.06;;;36.24;24.92
74936;BME280;63501;55.570;37.488;2023-09-18T12:16:29;99401.03;;;34.59;26.43
74936;BME280;63501;55.570;37.488;2023-09-18T12:18:56;99417.56;;;33.31;27.44
74936;BME280;63501;55.570;37.488;2023-09-18T12:21:24;99417.59;;;32.86;28.14
74936;BME280;63501;55.570;37.488;2023-09-18T12:23:51;99421.59;;;32.13;28.84
74936;BME280;63501;55.570;37.488;2023-09-18T12:26:19;99422.38;;;31.27;29.79
74936;BME280;63501;55.570;37.488;2023-09-18T12:28:46;99427.78;;;30.35;30.96
74936;BME280;63501;55.570;37.488;2023-09-18T12:31:13;99431.22;;;29.75;31.54
74936;BME280;63501;55.570;37.488;2023-09-18T12:33:40;99437.75;;;29.47;32.27
74936;BME280;63501;55.570;37.488;2023-09-18T12:36:09;99433.16;;;29.22;32.54
74936;BME280;63501;55.570;37.488;2023-09-18T12:38:36;99437.31;;;28.70;33.07
74936;BME280;63501;55.570;37.488;2023-09-18T12:41:03;99444.00;;;28.45;33.83
74936;BME280;63501;55.570;37.488;2023-09-18T12:43:37;99448.88;;;27.62;34.78
74936;BME280;63501;55.570;37.488;2023-09-18T12:46:05;99443.56;;;26.70;36.23
74936;BME280;63501;55.570;37.488;2023-09-18T12:48:32;99457.03;;;26.23;36.81
74936;BME280;63501;55.570;37.488;2023-09-18T12:51:02;99453.69;;;26.24;36.59
74936;BME280;63501;55.570;37.488;2023-09-18T12:53:29;99460.41;;;26.79;36.47
74936;BME280;63501;55.570;37.488;2023-09-18T12:56:04;99440.16;;;27.77;35.14
74936;BME280;63501;55.570;37.488;2023-09-18T12:58:31;99437.75;;;27.59;35.32
74936;BME280;63501;55.570;37.488;2023-09-18T13:01:03;99448.38;;;26.89;36.40
74936;BME280;63501;55.570;37.488;2023-09-18T13:03:33;99464.22;;;25.77;37.85